Terminal Aerodrome Forecast
Issued by NWS Albany, NY

Home | Current Version | Previous Version | Text Only | Print | Product List | Glossary On
Versions: 1 2 3 4 5 6 7 8 9 10 11 12 13 14 15 16 17 18 19
605
FTUS41 KALY 210525
TAFGFL
TAF
KGFL 210525Z 2106/2206 VRB03KT P6SM FEW250
     FM211500 16006KT P6SM BKN150 OVC200
     FM220300 19004KT P6SM SCT025 OVC050 PROB30 2203/2206 4SM -SHRA
      BKN025=

USA.gov is the U.S. government's official web portal to all federal, state and local government web resources and services.